Shawnee, Kansas
Current Conditions -  °F | °C
As of 12:54 PM on Saturday 20 Dec 2014 (Local Time) from KMKC Reporting Station
Broken Clouds Broken Clouds  
Wind Chill: 41°   Ceiling: 2200
Heat Index: 46°   Visibility: 10mi
Dew Point: 37°   Wind: 10mph
Humidity: 71%   Direction: 200°SSW
Pressure: 30.13"   Gusts: NA
Location:  39.02°N, 94.71°W
Report Text: KMKC 201854Z 20009KT 10SM BKN022 08/03 A3013 RMK AO2 SLP207 T00780028
Loading
Personal Weather Stations






























Interactive Weather Map New forecast layout! Learn more

10-Day Weather Forecast

Advertisements
Track Severe Weather on mobile